createdAt,value
2023-02-04T00:00:30.537Z,87.69
2023-02-04T00:02:58.001Z,88.28
2023-02-04T00:05:25.207Z,87.91
2023-02-04T00:07:52.148Z,88.01
2023-02-04T00:10:19.435Z,87.95
2023-02-04T00:12:46.611Z,87.95
2023-02-04T00:15:13.511Z,87.59
2023-02-04T00:17:40.590Z,88.10
2023-02-04T00:20:07.838Z,87.93
2023-02-04T00:22:34.710Z,88.03
2023-02-04T00:25:01.840Z,87.68
2023-02-04T00:27:28.835Z,87.67
2023-02-04T00:29:56.423Z,87.80
2023-02-04T00:32:23.835Z,87.51
2023-02-04T00:34:50.910Z,87.32
2023-02-04T00:37:17.798Z,88.19
2023-02-04T00:39:45.367Z,87.66
2023-02-04T00:42:12.587Z,88.15
2023-02-04T00:44:39.478Z,88.19
2023-02-04T00:47:06.557Z,87.44
2023-02-04T00:49:34.695Z,87.64
2023-02-04T00:52:01.973Z,87.99
2023-02-04T00:54:29.266Z,87.51
2023-02-04T00:56:56.158Z,87.85
2023-02-04T00:59:23.501Z,87.92
2023-02-04T01:01:51.830Z,87.79
2023-02-04T01:04:19.357Z,87.50
2023-02-04T01:06:46.282Z,87.48
2023-02-04T01:09:13.597Z,87.80
2023-02-04T01:11:40.541Z,87.27
2023-02-04T01:14:07.494Z,87.51
2023-02-04T01:16:34.619Z,87.29
2023-02-04T01:19:01.647Z,87.58
2023-02-04T01:21:28.549Z,87.39
2023-02-04T01:23:55.787Z,87.76
2023-02-04T01:26:22.836Z,87.73
2023-02-04T01:28:49.874Z,87.55
2023-02-04T01:31:17.513Z,87.83
2023-02-04T01:33:44.645Z,87.23
2023-02-04T01:36:12.210Z,87.17
2023-02-04T01:38:39.346Z,87.65
2023-02-04T01:41:06.541Z,87.52
2023-02-04T01:43:34.479Z,87.26
2023-02-04T01:46:02.844Z,87.41
2023-02-04T01:48:30.937Z,87.62
2023-02-04T01:51:05.194Z,87.31
2023-02-04T01:53:33.544Z,87.23
2023-02-04T01:56:01.086Z,87.29
2023-02-04T01:58:32.386Z,87.54
2023-02-04T02:01:00.672Z,87.57
2023-02-04T02:03:27.684Z,87.13
2023-02-04T02:05:55.784Z,87.68
2023-02-04T02:08:26.033Z,87.49
2023-02-04T02:10:53.024Z,86.85
2023-02-04T02:13:20.279Z,87.52
2023-02-04T02:15:48.152Z,87.53
2023-02-04T02:18:16.256Z,87.42
2023-02-04T02:20:44.540Z,87.46
2023-02-04T02:23:30.246Z,87.27
2023-02-04T02:25:58.011Z,86.92
2023-02-04T02:28:25.006Z,86.97
2023-02-04T02:30:52.606Z,87.02
2023-02-04T02:33:21.218Z,87.22
2023-02-04T02:35:49.870Z,86.70
2023-02-04T02:38:19.125Z,87.34
2023-02-04T02:40:47.143Z,87.28
2023-02-04T02:43:17.381Z,86.93
2023-02-04T02:45:45.548Z,87.05
2023-02-04T02:48:13.404Z,87.06
2023-02-04T02:50:42.002Z,87.10
2023-02-04T02:53:14.004Z,87.33
2023-02-04T02:55:42.450Z,87.39
2023-02-04T02:58:41.293Z,87.03
2023-02-04T03:01:30.643Z,87.18
2023-02-04T03:04:17.610Z,86.88
2023-02-04T03:07:05.039Z,86.87
2023-02-04T03:09:53.382Z,86.71
2023-02-04T03:12:40.577Z,86.86
2023-02-04T03:15:27.848Z,87.35
2023-02-04T03:18:14.906Z,86.83
2023-02-04T03:21:02.414Z,87.16
2023-02-04T03:23:51.460Z,86.88
2023-02-04T03:26:38.875Z,87.30
2023-02-04T03:29:32.387Z,87.11
2023-02-04T03:32:19.252Z,86.75
2023-02-04T03:35:06.321Z,86.81
2023-02-04T03:37:53.145Z,87.11
2023-02-04T03:40:40.288Z,86.87
2023-02-04T03:43:27.113Z,86.79
2023-02-04T03:46:14.346Z,86.73
2023-02-04T03:49:01.203Z,86.62
2023-02-04T03:51:48.261Z,86.66
2023-02-04T03:54:35.110Z,86.75
2023-02-04T03:57:22.346Z,87.02
2023-02-04T04:00:09.344Z,86.86
2023-02-04T04:02:59.974Z,87.24
2023-02-04T04:05:47.013Z,86.84
2023-02-04T04:08:34.055Z,87.00
2023-02-04T04:11:21.118Z,86.69
2023-02-04T04:14:08.246Z,86.80
2023-02-04T04:16:55.150Z,86.86
2023-02-04T04:19:42.157Z,86.43
2023-02-04T04:22:28.937Z,87.16
2023-02-04T04:25:16.059Z,86.22
2023-02-04T04:28:03.223Z,87.04
2023-02-04T04:30:50.348Z,86.66
2023-02-04T04:33:37.173Z,86.98
2023-02-04T04:36:24.362Z,86.83
2023-02-04T04:39:11.327Z,87.06
2023-02-04T04:41:58.191Z,86.71
2023-02-04T04:44:45.079Z,86.98
2023-02-04T04:47:32.141Z,86.93
2023-02-04T04:50:19.202Z,86.74
2023-02-04T04:53:06.102Z,86.64
2023-02-04T04:55:53.062Z,86.72
2023-02-04T04:58:40.158Z,86.94
2023-02-04T05:01:27.102Z,86.74
2023-02-04T05:04:14.149Z,86.76
2023-02-04T05:07:01.059Z,86.97
2023-02-04T05:09:48.088Z,86.76
2023-02-04T05:12:35.166Z,86.70
2023-02-04T05:15:22.166Z,86.66
2023-02-04T05:18:09.164Z,86.57
2023-02-04T05:20:56.181Z,86.80
2023-02-04T05:23:43.101Z,86.71
2023-02-04T05:26:31.329Z,86.80
2023-02-04T05:29:19.290Z,86.52
2023-02-04T05:32:06.255Z,86.72
2023-02-04T05:34:53.238Z,86.77
2023-02-04T05:37:40.225Z,86.85
2023-02-04T05:40:27.781Z,86.62
2023-02-04T05:43:14.801Z,86.47
2023-02-04T05:46:01.818Z,86.55
2023-02-04T05:48:48.724Z,86.79
2023-02-04T05:51:35.605Z,86.46
2023-02-04T05:54:22.491Z,86.31
2023-02-04T05:57:09.408Z,86.40
2023-02-04T05:59:56.443Z,86.51
2023-02-04T06:02:43.373Z,86.66
2023-02-04T06:05:30.554Z,86.55
2023-02-04T06:08:17.501Z,86.41
2023-02-04T06:11:04.482Z,86.46
2023-02-04T06:13:51.714Z,86.38
2023-02-04T06:16:38.764Z,86.31
2023-02-04T06:19:25.724Z,86.41
2023-02-04T06:22:12.706Z,86.46
2023-02-04T06:24:59.817Z,86.20
2023-02-04T06:27:46.747Z,86.21
2023-02-04T06:30:36.871Z,86.41
2023-02-04T06:33:24.062Z,86.18
2023-02-04T06:36:10.935Z,86.21
2023-02-04T06:38:57.932Z,86.30
2023-02-04T06:41:44.778Z,86.32
2023-02-04T06:44:31.934Z,86.03
2023-02-04T06:47:18.857Z,86.30
2023-02-04T06:50:06.111Z,86.21
2023-02-04T06:52:53.103Z,86.13
2023-02-04T06:55:40.120Z,86.26
2023-02-04T06:58:27.032Z,86.38
2023-02-04T07:01:14.205Z,86.14
2023-02-04T07:04:01.184Z,85.93
2023-02-04T07:06:48.303Z,85.95
2023-02-04T07:09:35.111Z,86.61
2023-02-04T07:12:22.135Z,86.10
2023-02-04T07:15:09.061Z,86.12
2023-02-04T07:17:56.137Z,85.87
2023-02-04T07:20:42.922Z,86.08
2023-02-04T07:23:09.956Z,85.80
2023-02-04T07:25:56.846Z,85.82
2023-02-04T07:28:24.025Z,86.09
2023-02-04T07:31:11.122Z,86.13
2023-02-04T07:33:42.638Z,86.07
2023-02-04T07:36:09.650Z,86.01
2023-02-04T07:38:36.934Z,85.98
2023-02-04T07:41:04.445Z,85.90
2023-02-04T07:43:31.624Z,85.55
2023-02-04T07:45:58.541Z,85.99
2023-02-04T07:48:25.750Z,86.07
2023-02-04T07:50:52.631Z,86.01
2023-02-04T07:53:19.560Z,86.20
2023-02-04T07:55:46.625Z,86.07
2023-02-04T07:58:13.588Z,86.15
2023-02-04T08:00:40.504Z,85.97
2023-02-04T08:03:07.689Z,86.11
2023-02-04T08:05:34.720Z,86.11
2023-02-04T08:08:02.078Z,86.16
2023-02-04T08:10:29.237Z,86.14
2023-02-04T08:12:56.397Z,85.93
2023-02-04T08:15:23.433Z,86.15
2023-02-04T08:17:50.373Z,86.15
2023-02-04T08:20:18.455Z,86.02
2023-02-04T08:22:45.746Z,86.39
2023-02-04T08:25:13.182Z,86.15
2023-02-04T08:27:40.152Z,86.32
2023-02-04T08:30:07.718Z,86.25
2023-02-04T08:32:34.922Z,86.59
2023-02-04T08:35:02.140Z,86.49
2023-02-04T08:37:49.321Z,86.40
2023-02-04T08:40:36.286Z,86.25
2023-02-04T08:43:23.279Z,86.69
2023-02-04T08:46:10.214Z,86.55
2023-02-04T08:48:57.219Z,86.51
2023-02-04T08:51:44.138Z,86.53
2023-02-04T08:54:31.160Z,86.60
2023-02-04T08:57:18.126Z,86.59
2023-02-04T09:00:05.079Z,86.71
2023-02-04T09:02:52.137Z,86.58
2023-02-04T09:05:39.107Z,86.85
2023-02-04T09:08:26.149Z,86.70
2023-02-04T09:11:13.072Z,86.46
2023-02-04T09:14:00.063Z,86.77
2023-02-04T09:16:47.269Z,86.88
2023-02-04T09:19:34.116Z,86.66
2023-02-04T09:22:21.030Z,86.65
2023-02-04T09:25:07.867Z,86.57
2023-02-04T09:27:54.807Z,86.79
2023-02-04T09:30:41.775Z,87.41
2023-02-04T09:33:30.279Z,87.21
2023-02-04T09:36:17.128Z,87.38
2023-02-04T09:39:04.140Z,87.15
2023-02-04T09:41:51.021Z,86.97
2023-02-04T09:44:41.059Z,87.61
2023-02-04T09:47:32.199Z,86.77
2023-02-04T09:50:19.270Z,86.95
2023-02-04T09:53:08.394Z,87.35
2023-02-04T09:55:59.325Z,87.24
2023-02-04T09:58:52.526Z,87.01
2023-02-04T10:01:40.601Z,87.52
2023-02-04T10:04:34.318Z,87.68
2023-02-04T10:07:21.189Z,87.27
2023-02-04T10:10:08.897Z,87.19
2023-02-04T10:12:55.838Z,87.17
2023-02-04T10:15:43.061Z,87.70
2023-02-04T10:18:37.904Z,87.49
2023-02-04T10:21:48.578Z,88.12
2023-02-04T10:24:38.814Z,87.51
2023-02-04T10:27:30.312Z,87.96
2023-02-04T10:30:18.346Z,87.58
2023-02-04T10:33:05.194Z,87.38
2023-02-04T10:35:52.641Z,88.20
2023-02-04T10:38:40.104Z,88.21
2023-02-04T10:41:27.166Z,88.19
2023-02-04T10:44:27.783Z,88.27
2023-02-04T10:47:26.891Z,87.55
2023-02-04T10:50:20.410Z,87.91
2023-02-04T10:53:11.390Z,88.30
2023-02-04T10:55:58.291Z,88.46
2023-02-04T10:58:49.312Z,88.34
2023-02-04T11:01:36.649Z,88.67
2023-02-04T11:04:23.798Z,88.45
2023-02-04T11:07:11.418Z,88.56
2023-02-04T11:10:02.037Z,87.86
2023-02-04T11:13:01.863Z,88.08
2023-02-04T11:16:03.411Z,88.06
2023-02-04T11:18:50.413Z,88.87
2023-02-04T11:21:49.657Z,87.97
2023-02-04T11:24:36.528Z,88.34
2023-02-04T11:27:57.671Z,87.92
2023-02-04T11:30:52.646Z,88.30
2023-02-04T11:33:45.236Z,88.98
2023-02-04T11:36:34.421Z,88.78
2023-02-04T11:39:35.423Z,88.17
2023-02-04T11:42:22.801Z,88.53
2023-02-04T11:45:14.909Z,89.18
2023-02-04T11:48:03.676Z,88.31
2023-02-04T11:50:55.235Z,88.46
2023-02-04T11:53:44.920Z,89.14
2023-02-04T11:56:39.014Z,88.66
2023-02-04T11:59:25.790Z,89.29
2023-02-04T12:02:24.538Z,89.43
2023-02-04T12:05:17.847Z,88.73
2023-02-04T12:08:06.059Z,88.54
2023-02-04T12:10:53.870Z,89.01
2023-02-04T12:13:43.775Z,89.27
2023-02-04T12:16:30.706Z,89.53
2023-02-04T12:19:17.737Z,89.41
2023-02-04T12:22:04.822Z,88.99
2023-02-04T12:24:51.709Z,89.30
2023-02-04T12:27:38.772Z,89.70
2023-02-04T12:30:26.096Z,88.80
2023-02-04T12:33:14.993Z,89.05
2023-02-04T12:35:42.661Z,89.27
2023-02-04T12:38:10.432Z,89.05
2023-02-04T12:40:37.846Z,88.93
2023-02-04T12:43:04.930Z,89.09
2023-02-04T12:45:32.745Z,89.21
2023-02-04T12:47:59.883Z,89.09
2023-02-04T12:50:27.059Z,88.98
2023-02-04T12:52:58.530Z,89.70
2023-02-04T12:55:28.128Z,89.42
2023-02-04T12:57:56.319Z,89.83
2023-02-04T13:00:24.392Z,89.88
2023-02-04T13:02:51.535Z,89.78
2023-02-04T13:05:18.737Z,90.03
2023-02-04T13:08:05.761Z,89.99
2023-02-04T13:10:52.695Z,89.28
2023-02-04T13:13:40.913Z,89.08
2023-02-04T13:16:27.809Z,89.16
2023-02-04T13:19:14.878Z,89.86
2023-02-04T13:22:02.051Z,89.11
2023-02-04T13:24:49.027Z,89.14
2023-02-04T13:27:36.015Z,89.99
2023-02-04T13:30:23.728Z,89.52
2023-02-04T13:33:10.659Z,89.27
2023-02-04T13:35:57.626Z,89.91
2023-02-04T13:38:45.125Z,89.30
2023-02-04T13:41:32.497Z,90.19
2023-02-04T13:44:19.886Z,89.54
2023-02-04T13:47:06.873Z,89.29
2023-02-04T13:49:53.910Z,89.25
2023-02-04T13:52:41.206Z,89.54
2023-02-04T13:55:28.198Z,89.39
2023-02-04T13:58:15.262Z,89.38
2023-02-04T14:01:02.280Z,89.71
2023-02-04T14:03:50.133Z,90.21
2023-02-04T14:06:37.043Z,89.46
2023-02-04T14:09:24.828Z,89.72
2023-02-04T14:12:11.802Z,89.92
2023-02-04T14:14:58.794Z,89.60
2023-02-04T14:17:45.817Z,89.31
2023-02-04T14:20:33.365Z,89.31
2023-02-04T14:23:20.546Z,89.57
2023-02-04T14:26:07.560Z,89.87
2023-02-04T14:28:54.645Z,89.31
2023-02-04T14:31:41.721Z,89.45
2023-02-04T14:34:28.773Z,89.71
2023-02-04T14:37:15.693Z,89.52
2023-02-04T14:40:02.663Z,89.27
2023-02-04T14:42:49.822Z,89.22
2023-02-04T14:45:37.008Z,89.22
2023-02-04T14:48:24.929Z,89.20
2023-02-04T14:51:11.976Z,89.17
2023-02-04T14:53:59.310Z,89.06
2023-02-04T14:56:46.352Z,89.75
2023-02-04T14:59:33.522Z,89.62
2023-02-04T15:02:20.473Z,89.52
2023-02-04T15:05:07.536Z,89.79
2023-02-04T15:07:54.842Z,88.95
2023-02-04T15:10:42.044Z,89.80
2023-02-04T15:13:29.227Z,89.51
2023-02-04T15:16:16.391Z,89.81
2023-02-04T15:19:04.166Z,88.85
2023-02-04T15:21:51.070Z,89.38
2023-02-04T15:24:38.282Z,89.73
2023-02-04T15:27:26.349Z,88.87
2023-02-04T15:30:13.735Z,88.98
2023-02-04T15:33:01.002Z,88.96
2023-02-04T15:35:48.157Z,88.92
2023-02-04T15:38:35.131Z,88.91
2023-02-04T15:41:22.506Z,89.71
2023-02-04T15:44:09.569Z,88.88
2023-02-04T15:46:56.664Z,89.48
2023-02-04T15:49:43.761Z,88.72
2023-02-04T15:52:30.726Z,88.99
2023-02-04T15:55:17.855Z,88.98
2023-02-04T15:58:05.081Z,88.55
2023-02-04T16:00:51.919Z,88.45
2023-02-04T16:03:38.813Z,89.10
2023-02-04T16:06:25.910Z,88.68
2023-02-04T16:09:12.857Z,89.10
2023-02-04T16:12:00.030Z,89.04
2023-02-04T16:14:47.235Z,89.25
2023-02-04T16:17:34.185Z,88.48
2023-02-04T16:20:21.782Z,88.33
2023-02-04T16:23:08.903Z,88.41
2023-02-04T16:25:55.791Z,88.38
2023-02-04T16:28:42.731Z,89.06
2023-02-04T16:31:29.834Z,88.43
2023-02-04T16:34:16.897Z,88.77
2023-02-04T16:37:03.902Z,89.07
2023-02-04T16:39:51.116Z,88.31
2023-02-04T16:42:38.319Z,88.66
2023-02-04T16:45:25.653Z,88.36
2023-02-04T16:48:12.642Z,88.57
2023-02-04T16:50:59.606Z,88.82
2023-02-04T16:53:46.479Z,88.18
2023-02-04T16:56:33.943Z,88.65
2023-02-04T16:59:24.697Z,88.47
2023-02-04T17:02:11.593Z,88.11
2023-02-04T17:04:58.506Z,87.92
2023-02-04T17:07:45.428Z,88.69
2023-02-04T17:10:33.058Z,87.76
2023-02-04T17:13:20.607Z,88.35
2023-02-04T17:16:07.595Z,88.29
2023-02-04T17:18:54.747Z,88.53
2023-02-04T17:21:47.146Z,88.07
2023-02-04T17:24:34.369Z,88.09
2023-02-04T17:27:21.637Z,87.61
2023-02-04T17:30:08.655Z,87.79
2023-02-04T17:32:55.631Z,88.01
2023-02-04T17:35:42.543Z,88.11
2023-02-04T17:38:29.502Z,87.98
2023-02-04T17:41:17.505Z,87.63
2023-02-04T17:44:04.547Z,87.57
2023-02-04T17:46:51.883Z,87.97
2023-02-04T17:49:38.937Z,87.72
2023-02-04T17:52:05.899Z,87.77
2023-02-04T17:54:34.313Z,87.46
2023-02-04T17:57:12.651Z,87.66
2023-02-04T17:59:41.047Z,87.70
2023-02-04T18:02:21.153Z,87.36
2023-02-04T18:04:48.116Z,87.79
2023-02-04T18:07:14.995Z,88.02
2023-02-04T18:09:42.115Z,87.38
2023-02-04T18:12:15.584Z,87.56
2023-02-04T18:14:44.903Z,87.27
2023-02-04T18:17:13.890Z,87.82
2023-02-04T18:19:42.078Z,87.67
2023-02-04T18:22:17.955Z,87.31
2023-02-04T18:24:48.605Z,87.73
2023-02-04T18:27:25.126Z,87.55
2023-02-04T18:30:16.552Z,86.90
2023-02-04T18:33:03.399Z,87.20
2023-02-04T18:35:57.973Z,87.17
2023-02-04T18:38:44.848Z,87.48
2023-02-04T18:41:37.699Z,86.99
2023-02-04T18:44:48.538Z,87.13
2023-02-04T18:48:01.739Z,87.49
2023-02-04T18:50:48.715Z,87.24
2023-02-04T18:53:35.799Z,86.87
2023-02-04T18:56:29.293Z,86.92
2023-02-04T18:59:16.136Z,87.29
2023-02-04T19:02:03.716Z,86.88
2023-02-04T19:05:06.148Z,87.10
2023-02-04T19:07:59.643Z,87.10
2023-02-04T19:10:49.954Z,86.88
2023-02-04T19:13:47.522Z,87.14
2023-02-04T19:17:04.262Z,87.13
2023-02-04T19:19:53.876Z,87.26
2023-02-04T19:23:02.392Z,87.14
2023-02-04T19:25:53.226Z,86.72
2023-02-04T19:28:45.719Z,87.11
2023-02-04T19:31:33.212Z,86.98
2023-02-04T19:34:21.658Z,86.90
2023-02-04T19:37:08.590Z,86.76
2023-02-04T19:39:57.758Z,86.85
2023-02-04T19:42:57.198Z,87.00
2023-02-04T19:45:46.122Z,86.91
2023-02-04T19:48:51.451Z,86.83
2023-02-04T19:51:44.091Z,86.85
2023-02-04T19:54:37.743Z,86.68
2023-02-04T19:57:46.440Z,86.65
2023-02-04T20:00:56.772Z,86.51
2023-02-04T20:03:51.147Z,86.70
2023-02-04T20:06:43.471Z,86.97
2023-02-04T20:09:37.767Z,86.63
2023-02-04T20:12:42.644Z,86.71
2023-02-04T20:15:37.987Z,86.65
2023-02-04T20:18:38.615Z,86.56
2023-02-04T20:21:31.342Z,86.79
2023-02-04T20:24:18.885Z,86.62
2023-02-04T20:26:45.835Z,86.83
2023-02-04T20:29:22.533Z,86.65
2023-02-04T20:31:49.581Z,87.19
2023-02-04T20:34:24.070Z,86.74
2023-02-04T20:36:52.321Z,86.78
2023-02-04T20:39:37.168Z,86.57
2023-02-04T20:42:23.981Z,86.66
2023-02-04T20:44:51.348Z,86.68
2023-02-04T20:47:25.301Z,86.85
2023-02-04T20:49:57.363Z,86.78
2023-02-04T20:52:46.010Z,87.33
2023-02-04T20:55:29.041Z,86.86
2023-02-04T20:58:23.910Z,86.90
2023-02-04T21:00:54.170Z,86.75
2023-02-04T21:03:27.767Z,87.03
2023-02-04T21:05:57.513Z,86.73
2023-02-04T21:08:27.636Z,87.13
2023-02-04T21:10:54.720Z,86.68
2023-02-04T21:13:22.275Z,86.96
2023-02-04T21:15:49.532Z,86.71
2023-02-04T21:18:16.805Z,86.82
2023-02-04T21:20:43.726Z,87.12
2023-02-04T21:23:10.735Z,87.17
2023-02-04T21:25:37.964Z,87.33
2023-02-04T21:28:06.586Z,87.28
2023-02-04T21:30:33.830Z,87.43
2023-02-04T21:33:02.142Z,87.07
2023-02-04T21:35:29.241Z,87.09
2023-02-04T21:38:03.116Z,87.46
2023-02-04T21:40:31.400Z,87.38
2023-02-04T21:42:58.411Z,87.38
2023-02-04T21:45:25.669Z,86.91
2023-02-04T21:47:53.346Z,87.25
2023-02-04T21:50:22.024Z,87.31
2023-02-04T21:52:49.604Z,87.25
2023-02-04T21:55:19.383Z,87.24
2023-02-04T21:57:46.450Z,87.08
2023-02-04T22:00:14.107Z,87.61
2023-02-04T22:02:41.105Z,87.15
2023-02-04T22:05:08.891Z,87.55
2023-02-04T22:07:37.013Z,87.66
2023-02-04T22:10:07.657Z,87.80
2023-02-04T22:12:34.754Z,87.54
2023-02-04T22:15:04.139Z,87.80
2023-02-04T22:17:31.385Z,87.46
2023-02-04T22:19:58.772Z,87.63
2023-02-04T22:22:25.737Z,88.03
2023-02-04T22:24:52.581Z,87.56
2023-02-04T22:27:19.626Z,87.46
2023-02-04T22:29:46.752Z,87.33
2023-02-04T22:32:13.925Z,87.81
2023-02-04T22:35:00.850Z,88.17
2023-02-04T22:37:47.686Z,87.77
2023-02-04T22:40:34.592Z,87.56
2023-02-04T22:43:21.522Z,88.06
2023-02-04T22:46:08.365Z,88.38
2023-02-04T22:48:55.551Z,87.59
2023-02-04T22:51:42.641Z,88.16
2023-02-04T22:54:29.530Z,87.69
2023-02-04T22:57:16.422Z,87.75
2023-02-04T23:00:03.226Z,87.90
2023-02-04T23:02:50.217Z,88.50
2023-02-04T23:05:37.477Z,88.04
2023-02-04T23:08:25.588Z,87.81
2023-02-04T23:11:12.638Z,87.99
2023-02-04T23:13:59.545Z,87.96
2023-02-04T23:16:46.619Z,88.47
2023-02-04T23:19:33.704Z,88.45
2023-02-04T23:22:20.966Z,88.42
2023-02-04T23:25:07.931Z,88.65
2023-02-04T23:27:54.790Z,88.74
2023-02-04T23:30:41.960Z,88.69
2023-02-04T23:33:29.156Z,88.85
2023-02-04T23:36:16.113Z,88.46
2023-02-04T23:39:03.171Z,88.41
2023-02-04T23:41:50.341Z,88.57
2023-02-04T23:44:37.570Z,88.32
2023-02-04T23:47:24.535Z,88.88
2023-02-04T23:50:11.474Z,88.76
2023-02-04T23:52:58.352Z,88.19
2023-02-04T23:55:45.348Z,88.95
2023-02-04T23:58:32.341Z,88.74
